sensor_id;sensor_type;location;lat;lon;timestamp;pressure;altitude;pressure_sealevel;temperature;humidity
28927;BME280;16038;47.692;9.400;2023-07-31T00:02:14;96792.41;;;13.42;100.00
28927;BME280;16038;47.692;9.400;2023-07-31T00:04:40;96788.44;;;13.39;100.00
28927;BME280;16038;47.692;9.400;2023-07-31T00:07:05;96790.47;;;13.49;100.00
28927;BME280;16038;47.692;9.400;2023-07-31T00:09:32;96785.84;;;13.64;100.00
28927;BME280;16038;47.692;9.400;2023-07-31T00:11:58;96788.16;;;13.58;100.00
28927;BME280;16038;47.692;9.400;2023-07-31T00:14:24;96781.50;;;13.60;100.00
28927;BME280;16038;47.692;9.400;2023-07-31T00:16:49;96788.16;;;13.58;100.00
28927;BME280;16038;47.692;9.400;2023-07-31T00:19:14;96786.59;;;13.57;100.00
28927;BME280;16038;47.692;9.400;2023-07-31T00:21:40;96777.50;;;13.50;100.00
28927;BME280;16038;47.692;9.400;2023-07-31T00:24:05;96775.09;;;13.41;100.00
28927;BME280;16038;47.692;9.400;2023-07-31T00:26:30;96776.56;;;13.28;100.00
28927;BME280;16038;47.692;9.400;2023-07-31T00:28:56;96776.53;;;13.24;100.00
28927;BME280;16038;47.692;9.400;2023-07-31T00:31:21;96774.06;;;13.12;100.00
28927;BME280;16038;47.692;9.400;2023-07-31T00:33:46;96769.31;;;13.05;100.00
28927;BME280;16038;47.692;9.400;2023-07-31T00:36:12;96772.81;;;12.98;100.00
28927;BME280;16038;47.692;9.400;2023-07-31T00:38:37;96777.88;;;12.93;100.00
28927;BME280;16038;47.692;9.400;2023-07-31T00:41:03;96781.84;;;12.99;100.00
28927;BME280;16038;47.692;9.400;2023-07-31T00:43:28;96780.94;;;12.84;100.00
28927;BME280;16038;47.692;9.400;2023-07-31T00:45:53;96783.75;;;12.91;100.00
28927;BME280;16038;47.692;9.400;2023-07-31T00:48:19;96775.69;;;13.16;100.00
28927;BME280;16038;47.692;9.400;2023-07-31T00:50:44;96778.41;;;13.13;100.00
28927;BME280;16038;47.692;9.400;2023-07-31T00:53:10;96771.44;;;13.26;100.00
28927;BME280;16038;47.692;9.400;2023-07-31T00:55:36;96780.19;;;13.39;100.00
28927;BME280;16038;47.692;9.400;2023-07-31T00:58:01;96783.38;;;13.45;100.00
28927;BME280;16038;47.692;9.400;2023-07-31T01:00:26;96784.94;;;13.42;100.00
28927;BME280;16038;47.692;9.400;2023-07-31T01:02:52;96784.66;;;13.62;100.00
28927;BME280;16038;47.692;9.400;2023-07-31T01:05:25;96771.66;;;13.58;100.00
28927;BME280;16038;47.692;9.400;2023-07-31T01:08:31;96775.09;;;13.41;100.00
28927;BME280;16038;47.692;9.400;2023-07-31T01:11:09;96770.91;;;13.06;100.00
28927;BME280;16038;47.692;9.400;2023-07-31T01:13:35;96766.25;;;12.69;100.00
28927;BME280;16038;47.692;9.400;2023-07-31T01:16:01;96763.03;;;12.22;100.00
28927;BME280;16038;47.692;9.400;2023-07-31T01:18:26;96763.78;;;12.16;100.00
28927;BME280;16038;47.692;9.400;2023-07-31T01:23:55;96764.41;;;12.02;100.00
28927;BME280;16038;47.692;9.400;2023-07-31T01:26:28;96759.06;;;12.16;100.00
28927;BME280;16038;47.692;9.400;2023-07-31T01:29:04;96755.81;;;12.41;100.00
28927;BME280;16038;47.692;9.400;2023-07-31T01:31:32;96753.16;;;12.52;100.00
28927;BME280;16038;47.692;9.400;2023-07-31T01:34:01;96741.88;;;12.60;100.00
28927;BME280;16038;47.692;9.400;2023-07-31T01:36:27;96744.25;;;12.66;100.00
28927;BME280;16038;47.692;9.400;2023-07-31T01:38:58;96747.72;;;12.59;100.00
28927;BME280;16038;47.692;9.400;2023-07-31T01:41:24;96746.50;;;12.56;100.00
28927;BME280;16038;47.692;9.400;2023-07-31T01:43:49;96754.72;;;12.53;100.00
28927;BME280;16038;47.692;9.400;2023-07-31T01:46:14;96749.66;;;12.58;100.00
28927;BME280;16038;47.692;9.400;2023-07-31T01:48:40;96748.53;;;12.63;100.00
28927;BME280;16038;47.692;9.400;2023-07-31T01:51:05;96739.09;;;12.57;100.00
28927;BME280;16038;47.692;9.400;2023-07-31T01:53:31;96744.94;;;12.55;100.00
28927;BME280;16038;47.692;9.400;2023-07-31T01:55:56;96747.06;;;12.73;100.00
28927;BME280;16038;47.692;9.400;2023-07-31T01:58:22;96742.44;;;12.80;100.00
28927;BME280;16038;47.692;9.400;2023-07-31T02:00:47;96742.06;;;12.86;100.00
28927;BME280;16038;47.692;9.400;2023-07-31T02:03:12;96734.94;;;12.77;100.00
28927;BME280;16038;47.692;9.400;2023-07-31T02:05:45;96734.22;;;12.84;100.00
28927;BME280;16038;47.692;9.400;2023-07-31T02:08:11;96729.56;;;12.95;100.00
28927;BME280;16038;47.692;9.400;2023-07-31T02:10:36;96725.31;;;13.05;100.00
28927;BME280;16038;47.692;9.400;2023-07-31T02:13:02;96723.03;;;13.18;100.00
28927;BME280;16038;47.692;9.400;2023-07-31T02:15:29;96732.06;;;13.15;100.00
28927;BME280;16038;47.692;9.400;2023-07-31T02:17:55;96729.00;;;13.24;100.00
28927;BME280;16038;47.692;9.400;2023-07-31T02:20:20;96727.09;;;13.31;100.00
28927;BME280;16038;47.692;9.400;2023-07-31T02:22:45;96728.22;;;13.30;100.00
28927;BME280;16038;47.692;9.400;2023-07-31T02:25:11;96719.56;;;13.28;100.00
28927;BME280;16038;47.692;9.400;2023-07-31T02:27:36;96716.38;;;13.19;100.00
28927;BME280;16038;47.692;9.400;2023-07-31T02:30:02;96714.34;;;13.09;100.00
28927;BME280;16038;47.692;9.400;2023-07-31T02:32:27;96714.66;;;12.93;100.00
28927;BME280;16038;47.692;9.400;2023-07-31T02:34:53;96709.50;;;12.88;100.00
28927;BME280;16038;47.692;9.400;2023-07-31T02:37:18;96700.75;;;12.75;100.00
28927;BME280;16038;47.692;9.400;2023-07-31T02:39:43;96715.06;;;12.50;100.00
28927;BME280;16038;47.692;9.400;2023-07-31T02:42:09;96707.00;;;12.27;100.00
28927;BME280;16038;47.692;9.400;2023-07-31T02:44:34;96707.72;;;12.20;100.00
28927;BME280;16038;47.692;9.400;2023-07-31T02:46:59;96704.94;;;12.17;100.00
28927;BME280;16038;47.692;9.400;2023-07-31T02:49:25;96703.75;;;12.14;100.00
28927;BME280;16038;47.692;9.400;2023-07-31T02:51:50;96705.22;;;12.08;100.00
28927;BME280;16038;47.692;9.400;2023-07-31T02:54:15;96701.59;;;11.97;100.00
28927;BME280;16038;47.692;9.400;2023-07-31T02:56:41;96699.63;;;11.97;100.00
28927;BME280;16038;47.692;9.400;2023-07-31T02:59:06;96701.94;;;11.92;100.00
28927;BME280;16038;47.692;9.400;2023-07-31T03:01:31;96688.50;;;11.86;100.00
28927;BME280;16038;47.692;9.400;2023-07-31T03:03:57;96702.81;;;11.99;100.00
28927;BME280;16038;47.692;9.400;2023-07-31T03:06:22;96704.53;;;12.15;100.00
28927;BME280;16038;47.692;9.400;2023-07-31T03:08:48;96697.09;;;12.19;100.00
28927;BME280;16038;47.692;9.400;2023-07-31T03:11:13;96703.84;;;12.25;100.00
28927;BME280;16038;47.692;9.400;2023-07-31T03:13:38;96709.00;;;12.30;100.00
28927;BME280;16038;47.692;9.400;2023-07-31T03:16:04;96711.81;;;12.37;100.00
28927;BME280;16038;47.692;9.400;2023-07-31T03:18:29;96710.34;;;12.47;100.00
28927;BME280;16038;47.692;9.400;2023-07-31T03:20:55;96709.97;;;12.49;100.00
28927;BME280;16038;47.692;9.400;2023-07-31T03:23:20;96717.81;;;12.50;100.00
28927;BME280;16038;47.692;9.400;2023-07-31T03:26:15;96719.41;;;12.55;100.00
28927;BME280;16038;47.692;9.400;2023-07-31T03:28:40;96720.69;;;12.65;100.00
28927;BME280;16038;47.692;9.400;2023-07-31T03:31:05;96720.66;;;12.61;100.00
28927;BME280;16038;47.692;9.400;2023-07-31T03:33:33;96718.28;;;12.59;100.00
28927;BME280;16038;47.692;9.400;2023-07-31T03:35:58;96715.91;;;12.58;100.00
28927;BME280;16038;47.692;9.400;2023-07-31T03:38:24;96721.38;;;12.54;100.00
28927;BME280;16038;47.692;9.400;2023-07-31T03:40:49;96716.63;;;12.51;100.00
28927;BME280;16038;47.692;9.400;2023-07-31T03:43:15;96722.47;;;12.42;100.00
28927;BME280;16038;47.692;9.400;2023-07-31T03:45:40;96717.53;;;12.21;100.00
28927;BME280;16038;47.692;9.400;2023-07-31T03:48:06;96713.47;;;12.08;100.00
28927;BME280;16038;47.692;9.400;2023-07-31T03:50:32;96706.25;;;11.93;100.00
28927;BME280;16038;47.692;9.400;2023-07-31T03:52:58;96712.53;;;11.93;100.00
28927;BME280;16038;47.692;9.400;2023-07-31T03:55:23;96717.28;;;11.96;100.00
28927;BME280;16038;47.692;9.400;2023-07-31T03:57:49;96708.75;;;12.05;100.00
28927;BME280;16038;47.692;9.400;2023-07-31T04:00:14;96708.88;;;12.16;100.00
28927;BME280;16038;47.692;9.400;2023-07-31T04:02:39;96711.34;;;12.28;100.00
28927;BME280;16038;47.692;9.400;2023-07-31T04:05:05;96712.50;;;12.27;100.00
28927;BME280;16038;47.692;9.400;2023-07-31T04:07:31;96710.56;;;12.31;100.00
28927;BME280;16038;47.692;9.400;2023-07-31T04:09:57;96716.94;;;12.39;100.00
28927;BME280;16038;47.692;9.400;2023-07-31T04:12:22;96728.44;;;12.52;100.00
28927;BME280;16038;47.692;9.400;2023-07-31T04:14:48;96733.16;;;12.55;100.00
28927;BME280;16038;47.692;9.400;2023-07-31T04:17:13;96734.38;;;12.57;100.00
28927;BME280;16038;47.692;9.400;2023-07-31T04:19:39;96732.41;;;12.58;100.00
28927;BME280;16038;47.692;9.400;2023-07-31T04:22:04;96731.28;;;12.62;100.00
28927;BME280;16038;47.692;9.400;2023-07-31T04:24:29;96730.94;;;12.68;100.00
28927;BME280;16038;47.692;9.400;2023-07-31T04:26:55;96732.59;;;12.79;100.00
28927;BME280;16038;47.692;9.400;2023-07-31T04:29:21;96726.31;;;12.79;100.00
28927;BME280;16038;47.692;9.400;2023-07-31T04:31:48;96729.84;;;12.79;100.00
28927;BME280;16038;47.692;9.400;2023-07-31T04:34:13;96733.03;;;12.89;100.00
28927;BME280;16038;47.692;9.400;2023-07-31T04:36:39;96737.00;;;12.88;100.00
28927;BME280;16038;47.692;9.400;2023-07-31T04:39:04;96738.19;;;12.94;100.00
28927;BME280;16038;47.692;9.400;2023-07-31T04:41:30;96735.50;;;13.01;100.00
28927;BME280;16038;47.692;9.400;2023-07-31T04:43:55;96738.34;;;13.12;100.00
28927;BME280;16038;47.692;9.400;2023-07-31T04:46:20;96730.13;;;13.19;100.00
28927;BME280;16038;47.692;9.400;2023-07-31T04:48:46;96736.13;;;13.32;100.00
28927;BME280;16038;47.692;9.400;2023-07-31T04:51:11;96736.94;;;13.36;100.00
28927;BME280;16038;47.692;9.400;2023-07-31T04:53:38;96735.22;;;13.17;100.00
28927;BME280;16038;47.692;9.400;2023-07-31T04:56:03;96739.88;;;13.06;100.00
28927;BME280;16038;47.692;9.400;2023-07-31T04:58:29;96732.84;;;13.12;100.00
28927;BME280;16038;47.692;9.400;2023-07-31T05:00:54;96735.41;;;12.90;100.00
28927;BME280;16038;47.692;9.400;2023-07-31T05:03:19;96733.16;;;12.55;100.00
28927;BME280;16038;47.692;9.400;2023-07-31T05:05:45;96734.81;;;12.22;100.00
28927;BME280;16038;47.692;9.400;2023-07-31T05:08:10;96739.16;;;12.23;100.00
28927;BME280;16038;47.692;9.400;2023-07-31T05:10:36;96737.28;;;12.34;100.00
28927;BME280;16038;47.692;9.400;2023-07-31T05:13:01;96738.75;;;12.66;100.00
28927;BME280;16038;47.692;9.400;2023-07-31T05:15:27;96737.16;;;13.09;100.00
28927;BME280;16038;47.692;9.400;2023-07-31T05:17:52;96737.47;;;13.56;100.00
28927;BME280;16038;47.692;9.400;2023-07-31T05:20:17;96741.91;;;13.86;100.00
28927;BME280;16038;47.692;9.400;2023-07-31T05:22:43;96737.97;;;13.80;100.00
28927;BME280;16038;47.692;9.400;2023-07-31T05:25:08;96737.28;;;14.11;100.00
28927;BME280;16038;47.692;9.400;2023-07-31T05:27:34;96746.78;;;14.28;100.00
28927;BME280;16038;47.692;9.400;2023-07-31T05:29:59;96738.63;;;14.79;100.00
28927;BME280;16038;47.692;9.400;2023-07-31T05:32:24;96734.63;;;15.23;100.00
28927;BME280;16038;47.692;9.400;2023-07-31T05:34:53;96739.63;;;15.89;100.00
28927;BME280;16038;47.692;9.400;2023-07-31T05:37:19;96736.63;;;16.39;100.00
28927;BME280;16038;47.692;9.400;2023-07-31T05:39:44;96735.75;;;15.76;100.00
28927;BME280;16038;47.692;9.400;2023-07-31T05:42:09;96742.50;;;15.35;100.00
28927;BME280;16038;47.692;9.400;2023-07-31T05:44:35;96737.69;;;15.64;100.00
28927;BME280;16038;47.692;9.400;2023-07-31T05:47:00;96738.50;;;15.76;100.00
28927;BME280;16038;47.692;9.400;2023-07-31T05:49:26;96744.22;;;16.24;100.00
28927;BME280;16038;47.692;9.400;2023-07-31T05:51:51;96740.28;;;16.15;100.00
28927;BME280;16038;47.692;9.400;2023-07-31T05:54:17;96736.47;;;15.91;100.00
28927;BME280;16038;47.692;9.400;2023-07-31T05:56:42;96742.75;;;15.95;100.00
28927;BME280;16038;47.692;9.400;2023-07-31T05:59:09;96740.31;;;16.11;100.00
28927;BME280;16038;47.692;9.400;2023-07-31T06:01:35;96743.75;;;16.37;100.00
28927;BME280;16038;47.692;9.400;2023-07-31T06:04:00;96743.84;;;16.86;100.00
28927;BME280;16038;47.692;9.400;2023-07-31T06:06:27;96745.47;;;17.25;100.00
28927;BME280;16038;47.692;9.400;2023-07-31T06:08:52;96748.38;;;17.52;100.00
28927;BME280;16038;47.692;9.400;2023-07-31T06:11:19;96745.78;;;17.75;100.00
28927;BME280;16038;47.692;9.400;2023-07-31T06:13:45;96743.28;;;17.05;100.00
28927;BME280;16038;47.692;9.400;2023-07-31T06:16:12;96743.41;;;16.91;100.00
28927;BME280;16038;47.692;9.400;2023-07-31T06:18:37;96742.78;;;17.17;100.00
28927;BME280;16038;47.692;9.400;2023-07-31T06:21:03;96741.31;;;17.47;100.00
28927;BME280;16038;47.692;9.400;2023-07-31T06:23:28;96746.03;;;17.88;100.00
28927;BME280;16038;47.692;9.400;2023-07-31T06:25:53;96740.66;;;18.08;100.00
28927;BME280;16038;47.692;9.400;2023-07-31T06:28:19;96745.97;;;18.26;100.00
28927;BME280;16038;47.692;9.400;2023-07-31T06:30:44;96745.31;;;19.00;100.00
28927;BME280;16038;47.692;9.400;2023-07-31T06:33:10;96756.16;;;20.42;88.24
28927;BME280;16038;47.692;9.400;2023-07-31T06:35:35;96756.75;;;21.68;75.76
28927;BME280;16038;47.692;9.400;2023-07-31T06:38:00;96763.63;;;21.64;75.28
28927;BME280;16038;47.692;9.400;2023-07-31T06:40:27;96764.88;;;21.30;73.74
28927;BME280;16038;47.692;9.400;2023-07-31T06:42:53;96763.50;;;21.05;70.79
28927;BME280;16038;47.692;9.400;2023-07-31T06:45:18;96752.78;;;21.04;72.34
28927;BME280;16038;47.692;9.400;2023-07-31T06:47:43;96750.34;;;20.89;71.29
28927;BME280;16038;47.692;9.400;2023-07-31T06:50:09;96751.47;;;21.25;72.58
28927;BME280;16038;47.692;9.400;2023-07-31T06:52:34;96746.75;;;21.54;69.69
28927;BME280;16038;47.692;9.400;2023-07-31T06:55:15;96738.19;;;20.99;68.61
28927;BME280;16038;47.692;9.400;2023-07-31T06:57:43;96748.63;;;20.59;69.09
28927;BME280;16038;47.692;9.400;2023-07-31T07:00:08;96742.50;;;20.31;71.10
28927;BME280;16038;47.692;9.400;2023-07-31T07:02:34;96749.19;;;20.34;71.25
28927;BME280;16038;47.692;9.400;2023-07-31T07:04:59;96743.22;;;20.15;71.77
28927;BME280;16038;47.692;9.400;2023-07-31T07:07:25;96745.34;;;19.88;73.40
28927;BME280;16038;47.692;9.400;2023-07-31T07:09:50;96749.22;;;19.74;73.49
28927;BME280;16038;47.692;9.400;2023-07-31T07:12:15;96748.97;;;19.41;74.35
28927;BME280;16038;47.692;9.400;2023-07-31T07:14:41;96746.56;;;19.19;76.74
28927;BME280;16038;47.692;9.400;2023-07-31T07:17:06;96743.25;;;18.77;78.15
28927;BME280;16038;47.692;9.400;2023-07-31T07:19:32;96738.47;;;19.05;77.75
28927;BME280;16038;47.692;9.400;2023-07-31T07:21:57;96729.53;;;18.94;76.47
28927;BME280;16038;47.692;9.400;2023-07-31T07:24:24;96721.47;;;19.03;76.03
28927;BME280;16038;47.692;9.400;2023-07-31T07:26:50;96724.91;;;19.34;73.58
28927;BME280;16038;47.692;9.400;2023-07-31T07:29:15;96711.75;;;19.58;71.09
28927;BME280;16038;47.692;9.400;2023-07-31T07:31:40;96723.56;;;20.06;68.69
28927;BME280;16038;47.692;9.400;2023-07-31T07:34:06;96719.03;;;20.49;66.32
28927;BME280;16038;47.692;9.400;2023-07-31T07:36:31;96719.94;;;20.25;67.05
28927;BME280;16038;47.692;9.400;2023-07-31T07:38:57;96710.56;;;20.72;66.78
28927;BME280;16038;47.692;9.400;2023-07-31T07:41:23;96715.19;;;20.95;65.90
28927;BME280;16038;47.692;9.400;2023-07-31T07:43:48;96715.34;;;21.05;63.44
28927;BME280;16038;47.692;9.400;2023-07-31T07:46:16;96720.03;;;20.58;65.10
28927;BME280;16038;47.692;9.400;2023-07-31T07:48:41;96723.59;;;20.22;65.73
28927;BME280;16038;47.692;9.400;2023-07-31T07:51:07;96727.50;;;20.25;65.87
28927;BME280;16038;47.692;9.400;2023-07-31T07:53:32;96727.66;;;20.54;64.44
28927;BME280;16038;47.692;9.400;2023-07-31T07:55:58;96731.94;;;20.59;63.84
28927;BME280;16038;47.692;9.400;2023-07-31T07:58:23;96727.47;;;20.45;64.45
28927;BME280;16038;47.692;9.400;2023-07-31T08:00:52;96727.13;;;20.43;63.52
28927;BME280;16038;47.692;9.400;2023-07-31T08:03:17;96734.50;;;20.33;62.52
28927;BME280;16038;47.692;9.400;2023-07-31T08:05:43;96728.97;;;20.13;63.15
28927;BME280;16038;47.692;9.400;2023-07-31T08:08:14;96729.59;;;20.01;63.92
28927;BME280;16038;47.692;9.400;2023-07-31T08:10:40;96730.59;;;20.84;62.65
28927;BME280;16038;47.692;9.400;2023-07-31T08:13:05;96734.03;;;21.53;59.16
28927;BME280;16038;47.692;9.400;2023-07-31T08:15:31;96730.72;;;21.42;58.51
28927;BME280;16038;47.692;9.400;2023-07-31T08:17:56;96727.38;;;21.02;58.64
28927;BME280;16038;47.692;9.400;2023-07-31T08:20:21;96730.84;;;21.22;58.55
28927;BME280;16038;47.692;9.400;2023-07-31T08:22:47;96728.94;;;21.19;58.16
28927;BME280;16038;47.692;9.400;2023-07-31T08:25:12;96729.72;;;21.36;57.53
28927;BME280;16038;47.692;9.400;2023-07-31T08:27:37;96729.81;;;21.32;58.08
28927;BME280;16038;47.692;9.400;2023-07-31T08:30:03;96721.28;;;22.27;56.16
28927;BME280;16038;47.692;9.400;2023-07-31T08:32:28;96726.47;;;23.28;52.96
28927;BME280;16038;47.692;9.400;2023-07-31T08:34:54;96723.00;;;24.16;50.68
28927;BME280;16038;47.692;9.400;2023-07-31T08:37:19;96732.03;;;24.20;47.97
28927;BME280;16038;47.692;9.400;2023-07-31T08:39:45;96734.72;;;24.86;48.64
28927;BME280;16038;47.692;9.400;2023-07-31T08:42:10;96737.44;;;25.86;45.64
28927;BME280;16038;47.692;9.400;2023-07-31T08:44:36;96742.09;;;26.26;44.94
28927;BME280;16038;47.692;9.400;2023-07-31T08:47:02;96726.88;;;26.94;41.73
28927;BME280;16038;47.692;9.400;2023-07-31T08:49:29;96731.97;;;27.38;41.40
28927;BME280;16038;47.692;9.400;2023-07-31T08:51:55;96733.22;;;25.72;42.77
28927;BME280;16038;47.692;9.400;2023-07-31T08:54:23;96729.94;;;26.10;42.97
28927;BME280;16038;47.692;9.400;2023-07-31T08:56:49;96731.34;;;26.76;41.67
28927;BME280;16038;47.692;9.400;2023-07-31T08:59:16;96723.69;;;26.77;40.08
28927;BME280;16038;47.692;9.400;2023-07-31T09:01:44;96720.44;;;27.75;38.97
28927;BME280;16038;47.692;9.400;2023-07-31T09:04:14;96709.88;;;26.64;38.99
28927;BME280;16038;47.692;9.400;2023-07-31T09:06:42;96703.28;;;26.06;40.66
28927;BME280;16038;47.692;9.400;2023-07-31T09:09:08;96696.44;;;25.98;40.46
28927;BME280;16038;47.692;9.400;2023-07-31T09:11:34;96688.63;;;26.11;40.50
28927;BME280;16038;47.692;9.400;2023-07-31T09:14:00;96697.16;;;27.98;38.00
28927;BME280;16038;47.692;9.400;2023-07-31T09:16:28;96695.28;;;27.95;37.10
28927;BME280;16038;47.692;9.400;2023-07-31T09:18:57;96691.91;;;28.36;36.16
28927;BME280;16038;47.692;9.400;2023-07-31T09:21:24;96692.09;;;28.47;35.49
28927;BME280;16038;47.692;9.400;2023-07-31T09:23:51;96691.34;;;28.62;36.22
28927;BME280;16038;47.692;9.400;2023-07-31T09:26:33;96685.06;;;27.83;37.32
28927;BME280;16038;47.692;9.400;2023-07-31T09:28:59;96696.34;;;27.11;37.46
28927;BME280;16038;47.692;9.400;2023-07-31T09:34:03;96687.09;;;26.62;38.68
28927;BME280;16038;47.692;9.400;2023-07-31T09:36:29;96682.13;;;26.47;39.26
28927;BME280;16038;47.692;9.400;2023-07-31T09:38:55;96683.69;;;26.39;39.61
28927;BME280;16038;47.692;9.400;2023-07-31T09:41:21;96675.72;;;25.40;41.27
28927;BME280;16038;47.692;9.400;2023-07-31T09:43:53;96675.88;;;25.36;41.96
28927;BME280;16038;47.692;9.400;2023-07-31T09:46:20;96671.66;;;25.31;42.46
28927;BME280;16038;47.692;9.400;2023-07-31T09:48:46;96664.31;;;25.80;42.71
28927;BME280;16038;47.692;9.400;2023-07-31T09:51:12;96675.53;;;26.60;40.72
28927;BME280;16038;47.692;9.400;2023-07-31T09:53:37;96687.38;;;26.97;39.23
28927;BME280;16038;47.692;9.400;2023-07-31T09:56:03;96676.47;;;26.90;38.79
28927;BME280;16038;47.692;9.400;2023-07-31T09:58:29;96670.25;;;26.62;39.32
28927;BME280;16038;47.692;9.400;2023-07-31T10:00:58;96669.06;;;27.35;37.99
28927;BME280;16038;47.692;9.400;2023-07-31T10:03:24;96663.81;;;27.19;38.94
28927;BME280;16038;47.692;9.400;2023-07-31T10:05:53;96657.19;;;26.40;39.79
28927;BME280;16038;47.692;9.400;2023-07-31T10:08:26;96657.84;;;26.68;39.76
28927;BME280;16038;47.692;9.400;2023-07-31T10:10:52;96645.25;;;26.21;40.91
28927;BME280;16038;47.692;9.400;2023-07-31T10:13:18;96642.91;;;26.20;40.42
28927;BME280;16038;47.692;9.400;2023-07-31T10:15:47;96635.94;;;25.87;40.98
28927;BME280;16038;47.692;9.400;2023-07-31T10:18:13;96631.50;;;26.23;40.68
28927;BME280;16038;47.692;9.400;2023-07-31T10:20:38;96635.53;;;26.31;41.05
28927;BME280;16038;47.692;9.400;2023-07-31T10:23:06;96634.03;;;26.64;40.04
28927;BME280;16038;47.692;9.400;2023-07-31T10:25:31;96645.69;;;26.29;39.63
28927;BME280;16038;47.692;9.400;2023-07-31T10:27:58;96638.66;;;26.33;40.65
28927;BME280;16038;47.692;9.400;2023-07-31T10:30:29;96636.06;;;27.12;38.88
28927;BME280;16038;47.692;9.400;2023-07-31T10:32:55;96618.47;;;27.26;39.54
28927;BME280;16038;47.692;9.400;2023-07-31T10:35:22;96614.00;;;27.58;39.03
28927;BME280;16038;47.692;9.400;2023-07-31T10:37:47;96605.47;;;26.89;39.82
28927;BME280;16038;47.692;9.400;2023-07-31T10:40:19;96598.06;;;27.01;39.89
28927;BME280;16038;47.692;9.400;2023-07-31T10:45:31;96597.25;;;26.10;40.37
28927;BME280;16038;47.692;9.400;2023-07-31T10:48:02;96594.38;;;25.67;42.24
28927;BME280;16038;47.692;9.400;2023-07-31T10:50:29;96589.88;;;25.24;43.42
28927;BME280;16038;47.692;9.400;2023-07-31T10:52:58;96583.53;;;25.32;43.07
28927;BME280;16038;47.692;9.400;2023-07-31T10:55:33;96570.88;;;25.09;44.22
28927;BME280;16038;47.692;9.400;2023-07-31T10:58:12;96563.75;;;25.36;42.69
28927;BME280;16038;47.692;9.400;2023-07-31T11:00:42;96558.88;;;25.64;43.22
28927;BME280;16038;47.692;9.400;2023-07-31T11:03:15;96561.88;;;25.05;43.73
28927;BME280;16038;47.692;9.400;2023-07-31T11:13:28;96526.38;;;24.74;45.06
28927;BME280;16038;47.692;9.400;2023-07-31T11:15:54;96518.88;;;24.99;45.00
28927;BME280;16038;47.692;9.400;2023-07-31T11:18:19;96516.53;;;25.44;44.79
28927;BME280;16038;47.692;9.400;2023-07-31T11:20:45;96523.19;;;24.45;45.29
28927;BME280;16038;47.692;9.400;2023-07-31T11:23:11;96521.44;;;24.29;46.68
28927;BME280;16038;47.692;9.400;2023-07-31T11:25:38;96523.19;;;24.45;45.62
28927;BME280;16038;47.692;9.400;2023-07-31T11:28:11;96519.06;;;24.86;45.43
28927;BME280;16038;47.692;9.400;2023-07-31T11:30:37;96510.81;;;24.92;45.77
28927;BME280;16038;47.692;9.400;2023-07-31T11:33:03;96507.22;;;24.91;45.97
28927;BME280;16038;47.692;9.400;2023-07-31T11:35:33;96519.53;;;24.94;45.17
28927;BME280;16038;47.692;9.400;2023-07-31T11:38:00;96504.44;;;24.82;44.64
28927;BME280;16038;47.692;9.400;2023-07-31T11:40:25;96508.47;;;25.27;43.96
28927;BME280;16038;47.692;9.400;2023-07-31T11:42:58;96506.41;;;25.37;43.53
28927;BME280;16038;47.692;9.400;2023-07-31T11:45:26;96508.31;;;25.22;44.04
28927;BME280;16038;47.692;9.400;2023-07-31T11:47:54;96506.56;;;25.52;43.46
28927;BME280;16038;47.692;9.400;2023-07-31T11:50:20;96507.53;;;25.40;43.90
28927;BME280;16038;47.692;9.400;2023-07-31T11:52:47;96499.91;;;25.83;42.33
28927;BME280;16038;47.692;9.400;2023-07-31T11:55:15;96503.13;;;25.48;42.60
28927;BME280;16038;47.692;9.400;2023-07-31T11:57:42;96503.00;;;25.24;43.40
28927;BME280;16038;47.692;9.400;2023-07-31T12:00:09;96498.66;;;25.04;42.44
28927;BME280;16038;47.692;9.400;2023-07-31T12:02:36;96500.84;;;25.28;42.15
28927;BME280;16038;47.692;9.400;2023-07-31T12:05:05;96498.28;;;25.58;42.72
28927;BME280;16038;47.692;9.400;2023-07-31T12:08:00;96498.88;;;25.62;42.97
28927;BME280;16038;47.692;9.400;2023-07-31T12:10:30;96493.47;;;25.49;42.27
28927;BME280;16038;47.692;9.400;2023-07-31T12:12:57;96496.44;;;25.97;40.93
28927;BME280;16038;47.692;9.400;2023-07-31T12:18:00;96497.13;;;26.16;40.42
28927;BME280;16038;47.692;9.400;2023-07-31T12:20:30;96493.66;;;26.21;39.71
28927;BME280;16038;47.692;9.400;2023-07-31T12:22:56;96491.63;;;25.88;39.91
28927;BME280;16038;47.692;9.400;2023-07-31T12:25:22;96480.84;;;26.29;40.31
28927;BME280;16038;47.692;9.400;2023-07-31T12:27:50;96483.84;;;25.83;40.36
28927;BME280;16038;47.692;9.400;2023-07-31T12:30:47;96476.69;;;25.82;40.96
28927;BME280;16038;47.692;9.400;2023-07-31T12:33:14;96475.72;;;25.94;39.20
28927;BME280;16038;47.692;9.400;2023-07-31T12:35:44;96469.88;;;25.74;39.79
28927;BME280;16038;47.692;9.400;2023-07-31T12:38:12;96463.19;;;25.62;41.43
28927;BME280;16038;47.692;9.400;2023-07-31T12:40:38;96449.94;;;25.72;41.35
28927;BME280;16038;47.692;9.400;2023-07-31T12:43:04;96443.06;;;25.30;41.11
28927;BME280;16038;47.692;9.400;2023-07-31T12:45:30;96445.59;;;25.62;41.11
28927;BME280;16038;47.692;9.400;2023-07-31T12:47:57;96444.75;;;25.80;41.26
28927;BME280;16038;47.692;9.400;2023-07-31T12:50:22;96438.06;;;25.77;41.20
28927;BME280;16038;47.692;9.400;2023-07-31T12:52:49;96433.19;;;25.53;41.79
28927;BME280;16038;47.692;9.400;2023-07-31T12:55:14;96440.44;;;25.08;41.65
28927;BME280;16038;47.692;9.400;2023-07-31T12:57:40;96437.47;;;25.30;41.17
28927;BME280;16038;47.692;9.400;2023-07-31T13:00:06;96433.88;;;25.39;41.28
28927;BME280;16038;47.692;9.400;2023-07-31T13:02:32;96424.97;;;25.41;40.86
28927;BME280;16038;47.692;9.400;2023-07-31T13:04:57;96423.94;;;25.62;40.34
28927;BME280;16038;47.692;9.400;2023-07-31T13:07:22;96422.53;;;25.67;39.67
28927;BME280;16038;47.692;9.400;2023-07-31T13:09:48;96400.59;;;25.89;39.68
28927;BME280;16038;47.692;9.400;2023-07-31T13:12:14;96405.41;;;25.65;40.20